Pagina principale
METAR-TAF:

METAR-TAF

Aeroporti :

Aeroporto Internazionale El Salvador

El Salvador, El Salvador

latitudine: 13-26N, longitudine: 089-03W, altezza: 25 m

Osservazione

Il bollettino è stato emesso 25 minuti fa, alle 14:50 UTC
Vento 2 kt da direzioni variabili
Temperature 30°C
Umidità 49%
Pressione 1014 hPa
Visibilità 10 km o più
Poco nuvoloso ad un'altezza di 3300 ft

METAR: MSLP 201450Z VRB02KT 9999 FEW033 30/18 Q1014 A2995 NOSIG

Ora: 09:15 (15:15 UTC)

Previsione

Il bollettino è stato emesso 5 ore e 50 minuti fa, alle 09:25 UTC
Previsione valida dal 20 alle 12 UTC al 21 alle 12 UTC
Vento 15 kt da nord/nord-est con raffiche fino a 30 kt
Visibilità 10 km o più
Poco nuvoloso ad un'altezza di 4300 ft

TAF: MSLP 200925Z 2012/2112 03015G30KT 9999 FEW043 TX34/2018Z TN26/2112Z

Osservazioni e previsioni meteorologiche di più di 4000 aeroporti (messaggi METAR e TAF).

Le stazioni disponibili sono rappresentate dai dischi gialli e rossi sulla carta.

Puntare il mouse per vedere il nome della stazione.

Clicca sopra per visualizzare le osservazioni e previsioni meteorologiche.

Per cambiare la mappa : fare clic sui pulsanti verdi con una croce nera per ingrandire, il pulsante verde con un trattino per diminuire, o sulla freccia verde per le mappe adiacenti.


METAR-TAF: